createdAt,value
2018-09-30T00:01:13.823Z,8.90
2018-09-30T00:03:41.950Z,8.90
2018-09-30T00:06:10.207Z,8.90
2018-09-30T00:08:38.400Z,8.80
2018-09-30T00:11:06.569Z,8.80
2018-09-30T00:13:34.761Z,8.70
2018-09-30T00:16:02.986Z,8.60
2018-09-30T00:18:31.179Z,8.60
2018-09-30T00:20:59.367Z,8.50
2018-09-30T00:23:30.873Z,8.40
2018-09-30T00:26:04.751Z,8.50
2018-09-30T00:28:32.939Z,8.50
2018-09-30T00:31:01.072Z,8.50
2018-09-30T00:33:29.286Z,8.50
2018-09-30T00:35:57.469Z,8.50
2018-09-30T00:38:25.643Z,8.40
2018-09-30T00:40:53.791Z,8.40
2018-09-30T00:43:21.999Z,8.40
2018-09-30T00:45:50.123Z,8.40
2018-09-30T00:48:18.304Z,8.40
2018-09-30T00:50:46.540Z,8.40
2018-09-30T00:53:14.771Z,8.30
2018-09-30T00:55:42.945Z,8.20
2018-09-30T00:58:11.150Z,8.10
2018-09-30T01:00:39.281Z,8.10
2018-09-30T01:03:07.442Z,8.20
2018-09-30T01:05:35.668Z,8.20
2018-09-30T01:08:03.879Z,8.20
2018-09-30T01:10:32.014Z,8.20
2018-09-30T01:13:00.335Z,8.20
2018-09-30T01:15:28.635Z,8.10
2018-09-30T01:17:56.847Z,8.10
2018-09-30T01:20:25.008Z,8.10
2018-09-30T01:22:53.163Z,8.00
2018-09-30T01:25:21.696Z,8.00
2018-09-30T01:27:49.819Z,8.10
2018-09-30T01:30:18.002Z,8.00
2018-09-30T01:32:46.225Z,8.00
2018-09-30T01:35:14.527Z,8.00
2018-09-30T01:37:42.996Z,8.00
2018-09-30T01:40:11.140Z,8.00
2018-09-30T01:42:39.272Z,8.00
2018-09-30T01:45:07.592Z,7.70
2018-09-30T01:47:35.781Z,7.60
2018-09-30T01:50:03.988Z,7.50
2018-09-30T01:52:55.955Z,7.40
2018-09-30T01:55:24.140Z,7.20
2018-09-30T01:57:52.315Z,7.20
2018-09-30T02:00:20.444Z,7.30
2018-09-30T02:02:48.700Z,7.40
2018-09-30T02:05:17.180Z,7.50
2018-09-30T02:07:46.433Z,7.50
2018-09-30T02:10:14.719Z,7.50
2018-09-30T02:12:42.857Z,7.50
2018-09-30T02:15:10.999Z,7.40
2018-09-30T02:17:39.243Z,7.40
2018-09-30T02:20:07.480Z,7.40
2018-09-30T02:22:35.663Z,7.40
2018-09-30T02:25:03.896Z,7.50
2018-09-30T02:27:32.070Z,7.50
2018-09-30T02:30:00.268Z,7.60
2018-09-30T02:32:28.515Z,7.50
2018-09-30T02:34:56.687Z,7.50
2018-09-30T02:37:24.931Z,7.50
2018-09-30T02:39:53.075Z,7.50
2018-09-30T02:42:21.312Z,7.50
2018-09-30T02:44:49.791Z,7.50
2018-09-30T02:47:17.974Z,7.50
2018-09-30T02:49:46.167Z,7.50
2018-09-30T02:52:14.314Z,7.50
2018-09-30T02:54:42.495Z,7.50
2018-09-30T02:57:10.620Z,7.50
2018-09-30T02:59:38.811Z,7.50
2018-09-30T03:02:06.971Z,7.40
2018-09-30T03:04:35.117Z,7.30
2018-09-30T03:07:08.882Z,7.30
2018-09-30T03:09:39.333Z,7.20
2018-09-30T03:12:07.632Z,7.20
2018-09-30T03:14:35.869Z,7.20
2018-09-30T03:17:04.043Z,7.20
2018-09-30T03:19:32.159Z,7.30
2018-09-30T03:22:00.368Z,7.20
2018-09-30T03:24:28.493Z,7.20
2018-09-30T03:26:56.683Z,7.20
2018-09-30T03:29:25.161Z,7.20
2018-09-30T03:31:53.291Z,7.20
2018-09-30T03:34:21.372Z,7.20
2018-09-30T03:36:49.610Z,7.10
2018-09-30T03:39:17.756Z,7.10
2018-09-30T03:41:45.942Z,7.10
2018-09-30T03:44:14.139Z,7.10
2018-09-30T03:46:42.364Z,7.20
2018-09-30T03:49:10.665Z,7.20
2018-09-30T03:51:38.851Z,7.10
2018-09-30T03:54:07.018Z,7.10
2018-09-30T03:56:35.255Z,7.10
2018-09-30T03:59:03.543Z,7.10
2018-09-30T04:01:31.711Z,7.10
2018-09-30T04:03:59.908Z,7.10
2018-09-30T04:06:28.062Z,7.10
2018-09-30T04:08:56.220Z,7.00
2018-09-30T04:11:24.388Z,6.90
2018-09-30T04:13:52.527Z,6.90
2018-09-30T04:16:20.772Z,6.90
2018-09-30T04:18:48.924Z,7.00
2018-09-30T04:21:17.068Z,7.00
2018-09-30T04:23:45.192Z,7.00
2018-09-30T04:26:13.375Z,7.10
2018-09-30T04:28:41.592Z,7.00
2018-09-30T04:31:09.768Z,7.00
2018-09-30T04:33:37.971Z,7.00
2018-09-30T04:36:06.343Z,7.00
2018-09-30T04:38:34.652Z,6.90
2018-09-30T04:41:02.859Z,6.80
2018-09-30T04:43:31.080Z,6.80
2018-09-30T04:45:59.283Z,6.80
2018-09-30T04:48:27.359Z,6.70
2018-09-30T04:50:55.486Z,6.70
2018-09-30T04:53:23.622Z,6.70
2018-09-30T04:55:51.806Z,6.50
2018-09-30T04:58:20.841Z,6.40
2018-09-30T05:00:49.008Z,6.40
2018-09-30T05:03:17.141Z,6.50
2018-09-30T05:05:45.386Z,6.50
2018-09-30T05:08:13.499Z,6.50
2018-09-30T05:10:41.623Z,6.40
2018-09-30T05:13:09.787Z,6.40
2018-09-30T05:15:37.910Z,6.50
2018-09-30T05:18:06.056Z,6.50
2018-09-30T05:20:34.201Z,6.60
2018-09-30T05:23:02.447Z,6.60
2018-09-30T05:25:30.615Z,6.70
2018-09-30T05:27:58.790Z,6.80
2018-09-30T05:30:26.906Z,6.80
2018-09-30T05:32:55.072Z,6.60
2018-09-30T05:35:23.195Z,6.50
2018-09-30T05:37:51.312Z,6.60
2018-09-30T05:40:19.503Z,6.60
2018-09-30T05:42:47.735Z,6.60
2018-09-30T05:45:16.012Z,6.70
2018-09-30T05:47:44.149Z,6.60
2018-09-30T05:50:12.279Z,6.60
2018-09-30T05:52:40.460Z,6.70
2018-09-30T05:55:08.639Z,6.70
2018-09-30T05:57:36.848Z,6.70
2018-09-30T06:00:05.302Z,6.70
2018-09-30T06:02:33.525Z,6.70
2018-09-30T06:05:01.704Z,6.80
2018-09-30T06:07:30.010Z,6.80
2018-09-30T06:09:58.271Z,6.80
2018-09-30T06:12:26.518Z,6.80
2018-09-30T06:14:54.751Z,6.90
2018-09-30T06:17:22.949Z,6.90
2018-09-30T06:19:51.237Z,6.90
2018-09-30T06:22:19.489Z,6.90
2018-09-30T06:24:47.790Z,7.00
2018-09-30T06:27:16.060Z,7.00
2018-09-30T06:29:44.276Z,7.10
2018-09-30T06:32:12.511Z,7.20
2018-09-30T06:34:40.685Z,7.20
2018-09-30T06:37:09.030Z,7.30
2018-09-30T06:39:37.262Z,7.30
2018-09-30T06:42:05.555Z,7.30
2018-09-30T06:44:33.712Z,7.40
2018-09-30T06:47:02.129Z,7.50
2018-09-30T06:49:30.284Z,7.50
2018-09-30T06:51:58.518Z,7.60
2018-09-30T06:54:26.723Z,7.70
2018-09-30T06:56:54.947Z,7.70
2018-09-30T06:59:23.128Z,7.80
2018-09-30T07:01:51.318Z,7.90
2018-09-30T07:04:20.184Z,8.00
2018-09-30T07:06:48.412Z,8.00
2018-09-30T07:09:16.593Z,8.10
2018-09-30T07:11:44.729Z,8.20
2018-09-30T07:14:12.955Z,8.30
2018-09-30T07:16:41.170Z,8.40
2018-09-30T07:19:09.590Z,8.50
2018-09-30T07:21:37.763Z,8.60
2018-09-30T07:24:05.996Z,8.60
2018-09-30T07:26:34.175Z,8.70
2018-09-30T07:29:02.448Z,8.80
2018-09-30T07:31:30.701Z,8.90
2018-09-30T07:33:58.901Z,9.00
2018-09-30T07:36:27.118Z,9.10
2018-09-30T07:38:55.546Z,9.20
2018-09-30T07:41:23.725Z,9.30
2018-09-30T07:43:51.982Z,9.40
2018-09-30T07:46:20.183Z,9.50
2018-09-30T07:48:48.621Z,9.60
2018-09-30T07:51:17.037Z,9.70
2018-09-30T07:53:45.200Z,9.70
2018-09-30T07:56:13.454Z,9.90
2018-09-30T07:58:41.708Z,10.00
2018-09-30T08:01:09.969Z,10.10
2018-09-30T08:03:38.185Z,10.10
2018-09-30T08:06:06.394Z,10.20
2018-09-30T08:08:34.559Z,10.30
2018-09-30T08:11:02.790Z,10.40
2018-09-30T08:13:30.963Z,10.50
2018-09-30T08:15:59.193Z,10.60
2018-09-30T08:18:27.382Z,10.70
2018-09-30T08:20:55.551Z,10.80
2018-09-30T08:23:23.767Z,10.90
2018-09-30T08:25:51.992Z,11.00
2018-09-30T08:28:20.391Z,11.10
2018-09-30T08:30:48.985Z,11.20
2018-09-30T08:33:17.121Z,11.30
2018-09-30T08:35:49.904Z,11.40
2018-09-30T08:38:23.754Z,11.50
2018-09-30T08:40:57.695Z,11.60
2018-09-30T08:43:25.905Z,11.70
2018-09-30T08:45:54.519Z,11.70
2018-09-30T08:48:22.813Z,11.80
2018-09-30T08:50:51.041Z,11.90
2018-09-30T08:53:19.260Z,12.00
2018-09-30T08:55:47.470Z,12.10
2018-09-30T08:58:15.816Z,12.20
2018-09-30T09:00:43.981Z,12.30
2018-09-30T09:03:12.163Z,12.40
2018-09-30T09:05:40.440Z,12.60
2018-09-30T09:08:08.691Z,12.60
2018-09-30T09:10:36.917Z,12.70
2018-09-30T09:13:05.293Z,12.70
2018-09-30T09:15:33.560Z,12.70
2018-09-30T09:18:01.797Z,12.80
2018-09-30T09:20:30.129Z,12.90
2018-09-30T09:22:58.401Z,13.00
2018-09-30T09:25:26.618Z,13.10
2018-09-30T09:27:54.920Z,13.20
2018-09-30T09:30:23.031Z,13.30
2018-09-30T09:32:51.161Z,13.40
2018-09-30T09:35:19.540Z,13.50
2018-09-30T09:37:47.796Z,13.50
2018-09-30T09:40:15.993Z,13.60
2018-09-30T09:42:44.270Z,13.60
2018-09-30T09:45:12.510Z,13.70
2018-09-30T09:47:40.814Z,13.80
2018-09-30T09:50:09.234Z,13.80
2018-09-30T09:52:37.637Z,14.00
2018-09-30T09:55:05.912Z,14.00
2018-09-30T09:57:34.102Z,14.10
2018-09-30T10:00:02.379Z,14.10
2018-09-30T10:02:30.550Z,14.30
2018-09-30T10:04:59.431Z,14.40
2018-09-30T10:07:27.630Z,14.40
2018-09-30T10:09:55.916Z,14.50
2018-09-30T10:12:24.203Z,14.60
2018-09-30T10:14:52.418Z,14.60
2018-09-30T10:17:20.646Z,14.70
2018-09-30T10:19:48.829Z,14.90
2018-09-30T10:22:17.055Z,14.90
2018-09-30T10:24:45.401Z,15.00
2018-09-30T10:27:14.458Z,15.00
2018-09-30T10:29:42.665Z,15.10
2018-09-30T10:32:10.941Z,15.20
2018-09-30T10:34:39.189Z,15.30
2018-09-30T10:37:07.424Z,15.30
2018-09-30T10:39:35.572Z,15.40
2018-09-30T10:42:03.850Z,15.50
2018-09-30T10:44:32.073Z,15.60
2018-09-30T10:47:00.230Z,15.60
2018-09-30T10:49:28.463Z,15.60
2018-09-30T10:51:56.729Z,15.70
2018-09-30T10:54:24.909Z,15.80
2018-09-30T10:56:53.236Z,15.90
2018-09-30T10:59:21.391Z,15.90
2018-09-30T11:01:49.568Z,16.00
2018-09-30T11:04:17.775Z,16.00
2018-09-30T11:06:45.947Z,16.20
2018-09-30T11:09:14.157Z,16.20
2018-09-30T11:11:42.368Z,16.30
2018-09-30T11:14:10.559Z,16.30
2018-09-30T11:16:38.733Z,16.40
2018-09-30T11:19:07.061Z,16.50
2018-09-30T11:21:35.261Z,16.60
2018-09-30T11:24:03.530Z,16.60
2018-09-30T11:26:31.752Z,16.60
2018-09-30T11:28:59.973Z,16.60
2018-09-30T11:31:28.206Z,16.70
2018-09-30T11:33:56.393Z,16.70
2018-09-30T11:36:24.746Z,16.70
2018-09-30T11:38:52.980Z,16.80
2018-09-30T11:41:21.176Z,16.90
2018-09-30T11:43:49.515Z,17.00
2018-09-30T11:46:17.700Z,17.00
2018-09-30T11:48:45.869Z,17.10
2018-09-30T11:51:14.077Z,17.00
2018-09-30T11:53:42.363Z,17.10
2018-09-30T11:56:10.625Z,17.20
2018-09-30T11:58:38.810Z,17.20
2018-09-30T12:01:07.191Z,17.20
2018-09-30T12:03:35.396Z,17.30
2018-09-30T12:06:03.588Z,17.20
2018-09-30T12:08:31.897Z,17.20
2018-09-30T12:11:00.111Z,17.30
2018-09-30T12:13:28.328Z,17.30
2018-09-30T12:15:56.504Z,17.40
2018-09-30T12:18:24.755Z,17.40
2018-09-30T12:20:52.992Z,17.40
2018-09-30T12:23:21.295Z,17.40
2018-09-30T12:25:49.546Z,17.50
2018-09-30T12:28:17.905Z,17.50
2018-09-30T12:30:46.252Z,17.50
2018-09-30T12:33:14.458Z,17.60
2018-09-30T12:35:44.384Z,17.70
2018-09-30T12:38:12.687Z,17.70
2018-09-30T12:40:40.940Z,17.70
2018-09-30T12:43:09.158Z,17.70
2018-09-30T12:45:37.507Z,17.80
2018-09-30T12:48:05.828Z,17.80
2018-09-30T12:50:34.184Z,17.90
2018-09-30T12:53:02.413Z,17.90
2018-09-30T12:55:30.645Z,17.90
2018-09-30T12:57:58.888Z,18.00
2018-09-30T13:00:27.840Z,18.00
2018-09-30T13:02:56.141Z,18.20
2018-09-30T13:05:24.345Z,18.30
2018-09-30T13:07:52.605Z,18.40
2018-09-30T13:10:20.860Z,18.40
2018-09-30T13:12:49.087Z,18.40
2018-09-30T13:15:17.323Z,18.40
2018-09-30T13:17:45.612Z,18.40
2018-09-30T13:20:13.804Z,18.40
2018-09-30T13:22:42.017Z,18.40
2018-09-30T13:25:10.249Z,18.40
2018-09-30T13:27:38.458Z,18.50
2018-09-30T13:30:06.860Z,18.50
2018-09-30T13:32:35.108Z,18.50
2018-09-30T13:35:03.367Z,18.60
2018-09-30T13:37:31.650Z,18.60
2018-09-30T13:39:59.997Z,18.60
2018-09-30T13:42:28.204Z,18.70
2018-09-30T13:44:56.411Z,18.70
2018-09-30T13:47:24.640Z,18.80
2018-09-30T13:49:52.861Z,18.90
2018-09-30T13:52:20.998Z,19.00
2018-09-30T13:54:49.290Z,19.00
2018-09-30T13:57:17.594Z,19.10
2018-09-30T13:59:45.900Z,19.10
2018-09-30T14:02:14.075Z,19.10
2018-09-30T14:04:42.336Z,19.10
2018-09-30T14:07:10.533Z,19.10
2018-09-30T14:09:45.537Z,19.20
2018-09-30T14:12:13.903Z,19.30
2018-09-30T14:14:42.137Z,19.40
2018-09-30T14:17:10.288Z,19.40
2018-09-30T14:19:38.628Z,19.50
2018-09-30T14:22:06.965Z,19.50
2018-09-30T14:24:35.210Z,19.50
2018-09-30T14:27:03.577Z,19.50
2018-09-30T14:29:31.720Z,19.60
2018-09-30T14:32:00.133Z,19.60
2018-09-30T14:34:28.380Z,19.70
2018-09-30T14:36:56.694Z,19.70
2018-09-30T14:39:24.919Z,19.70
2018-09-30T14:41:53.183Z,19.70
2018-09-30T14:44:21.404Z,19.90
2018-09-30T14:46:49.677Z,20.00
2018-09-30T14:49:17.880Z,20.20
2018-09-30T14:51:46.179Z,20.40
2018-09-30T14:54:14.403Z,20.50
2018-09-30T14:56:42.592Z,21.00
2018-09-30T14:59:10.940Z,21.40
2018-09-30T15:01:39.161Z,22.00
2018-09-30T15:04:07.425Z,22.40
2018-09-30T15:06:35.642Z,22.40
2018-09-30T15:09:06.905Z,22.30
2018-09-30T15:11:35.108Z,22.20
2018-09-30T15:14:03.347Z,22.40
2018-09-30T15:16:31.560Z,22.20
2018-09-30T15:18:59.834Z,22.10
2018-09-30T15:21:28.068Z,21.80
2018-09-30T15:23:56.300Z,21.40
2018-09-30T15:26:24.545Z,21.20
2018-09-30T15:28:52.774Z,21.00
2018-09-30T15:31:21.020Z,20.80
2018-09-30T15:33:49.210Z,20.50
2018-09-30T15:36:17.479Z,20.30
2018-09-30T15:38:46.076Z,20.20
2018-09-30T15:41:14.310Z,20.00
2018-09-30T15:43:42.557Z,19.90
2018-09-30T15:46:10.769Z,19.80
2018-09-30T15:48:38.965Z,19.80
2018-09-30T15:51:07.338Z,19.70
2018-09-30T15:53:35.552Z,19.70
2018-09-30T15:56:03.816Z,19.50
2018-09-30T15:58:32.083Z,19.40
2018-09-30T16:01:00.363Z,19.30
2018-09-30T16:03:28.677Z,19.30
2018-09-30T16:05:56.957Z,19.30
2018-09-30T16:08:25.235Z,19.30
2018-09-30T16:10:53.580Z,19.30
2018-09-30T16:13:21.878Z,19.30
2018-09-30T16:15:50.108Z,19.20
2018-09-30T16:18:18.334Z,19.20
2018-09-30T16:20:46.549Z,19.10
2018-09-30T16:23:14.831Z,19.10
2018-09-30T16:25:43.057Z,19.10
2018-09-30T16:28:11.316Z,19.00
2018-09-30T16:30:39.513Z,18.90
2018-09-30T16:33:07.797Z,18.90
2018-09-30T16:35:35.985Z,18.80
2018-09-30T16:38:04.285Z,18.70
2018-09-30T16:40:32.568Z,18.70
2018-09-30T16:43:00.769Z,18.50
2018-09-30T16:45:28.953Z,18.50
2018-09-30T16:47:57.173Z,18.40
2018-09-30T16:50:25.394Z,18.40
2018-09-30T16:52:53.535Z,18.30
2018-09-30T16:55:21.805Z,18.30
2018-09-30T16:57:50.051Z,18.30
2018-09-30T17:00:18.424Z,18.20
2018-09-30T17:02:46.586Z,18.30
2018-09-30T17:05:14.777Z,18.20
2018-09-30T17:07:43.061Z,18.20
2018-09-30T17:10:11.328Z,18.10
2018-09-30T17:12:39.493Z,18.00
2018-09-30T17:15:07.839Z,17.90
2018-09-30T17:17:36.012Z,17.70
2018-09-30T17:20:04.879Z,17.60
2018-09-30T17:22:33.095Z,17.60
2018-09-30T17:25:01.327Z,17.40
2018-09-30T17:27:29.551Z,17.30
2018-09-30T17:29:57.954Z,17.00
2018-09-30T17:32:26.376Z,16.90
2018-09-30T17:34:54.573Z,16.90
2018-09-30T17:37:23.314Z,16.70
2018-09-30T17:39:51.635Z,16.70
2018-09-30T17:42:19.907Z,16.60
2018-09-30T17:44:48.118Z,16.50
2018-09-30T17:47:16.305Z,16.50
2018-09-30T17:49:44.573Z,16.50
2018-09-30T17:52:12.859Z,16.40
2018-09-30T17:54:41.166Z,16.20
2018-09-30T17:57:09.539Z,16.20
2018-09-30T17:59:37.782Z,16.10
2018-09-30T18:02:06.100Z,16.10
2018-09-30T18:04:34.429Z,16.00
2018-09-30T18:07:02.745Z,16.00
2018-09-30T18:09:31.114Z,15.90
2018-09-30T18:11:59.426Z,15.80
2018-09-30T18:14:27.690Z,15.70
2018-09-30T18:16:56.416Z,15.60
2018-09-30T18:19:24.712Z,15.60
2018-09-30T18:21:53.301Z,15.50
2018-09-30T18:24:22.373Z,15.50
2018-09-30T18:26:50.619Z,15.50
2018-09-30T18:29:19.194Z,15.40
2018-09-30T18:31:47.839Z,15.30
2018-09-30T18:34:16.484Z,15.30
2018-09-30T18:36:45.090Z,15.40
2018-09-30T18:39:13.799Z,15.40
2018-09-30T18:41:42.332Z,15.30
2018-09-30T18:44:10.883Z,15.10
2018-09-30T18:46:39.463Z,15.00
2018-09-30T18:49:08.091Z,14.90
2018-09-30T18:51:36.745Z,14.90
2018-09-30T18:54:05.447Z,14.80
2018-09-30T18:56:34.030Z,14.80
2018-09-30T18:59:02.790Z,14.80
2018-09-30T19:01:31.407Z,14.70
2018-09-30T19:03:59.975Z,14.60
2018-09-30T19:06:28.593Z,14.50
2018-09-30T19:08:57.253Z,14.50
2018-09-30T19:11:26.143Z,14.50
2018-09-30T19:13:54.932Z,14.50
2018-09-30T19:16:23.659Z,14.50
2018-09-30T19:18:52.393Z,14.40
2018-09-30T19:21:21.080Z,14.40
2018-09-30T19:23:49.631Z,14.30
2018-09-30T19:26:18.260Z,14.30
2018-09-30T19:28:46.636Z,14.30
2018-09-30T19:31:16.873Z,14.20
2018-09-30T19:33:45.345Z,14.10
2018-09-30T19:36:14.153Z,14.20
2018-09-30T19:38:42.567Z,14.20
2018-09-30T19:41:10.937Z,14.20
2018-09-30T19:43:39.289Z,14.10
2018-09-30T19:46:08.067Z,14.00
2018-09-30T19:48:36.424Z,14.00
2018-09-30T19:51:05.273Z,14.00
2018-09-30T19:53:33.721Z,14.00
2018-09-30T19:56:02.011Z,14.00
2018-09-30T19:58:30.292Z,14.00
2018-09-30T20:00:58.687Z,14.00
2018-09-30T20:03:27.082Z,13.90
2018-09-30T20:05:55.391Z,13.80
2018-09-30T20:08:23.770Z,13.80
2018-09-30T20:10:52.084Z,13.70
2018-09-30T20:13:20.452Z,13.60
2018-09-30T20:15:49.069Z,13.60
2018-09-30T20:18:19.108Z,13.60
2018-09-30T20:20:47.404Z,13.60
2018-09-30T20:23:15.760Z,13.60
2018-09-30T20:25:44.018Z,13.50
2018-09-30T20:28:12.273Z,13.50
2018-09-30T20:30:40.580Z,13.50
2018-09-30T20:33:08.988Z,13.50
2018-09-30T20:35:37.270Z,13.40
2018-09-30T20:38:05.716Z,13.40
2018-09-30T20:40:38.592Z,13.30
2018-09-30T20:43:07.582Z,13.30
2018-09-30T20:45:35.993Z,13.30
2018-09-30T20:48:04.341Z,13.20
2018-09-30T20:50:32.496Z,13.10
2018-09-30T20:53:00.695Z,13.10
2018-09-30T20:55:29.102Z,13.00
2018-09-30T20:57:57.470Z,13.00
2018-09-30T21:00:25.812Z,13.00
2018-09-30T21:02:54.197Z,13.00
2018-09-30T21:06:48.451Z,13.00
2018-09-30T21:09:18.318Z,12.90
2018-09-30T21:11:46.624Z,12.80
2018-09-30T21:14:14.819Z,12.80
2018-09-30T21:16:43.046Z,12.80
2018-09-30T21:19:11.357Z,12.80
2018-09-30T21:21:39.759Z,12.70
2018-09-30T21:24:08.150Z,12.70
2018-09-30T21:26:36.473Z,12.70
2018-09-30T21:29:04.765Z,12.70
2018-09-30T21:31:32.972Z,12.60
2018-09-30T21:34:01.308Z,12.60
2018-09-30T21:36:29.484Z,12.50
2018-09-30T21:38:57.748Z,12.60
2018-09-30T21:41:26.054Z,12.60
2018-09-30T21:43:54.339Z,12.50
2018-09-30T21:46:22.670Z,12.60
2018-09-30T21:48:50.951Z,12.50
2018-09-30T21:51:19.216Z,12.50
2018-09-30T21:53:47.479Z,12.50
2018-09-30T21:56:15.688Z,12.50
2018-09-30T21:58:43.932Z,12.40
2018-09-30T22:01:12.288Z,12.40
2018-09-30T22:03:40.495Z,12.30
2018-09-30T22:06:08.713Z,12.30
2018-09-30T22:08:37.008Z,12.30
2018-09-30T22:11:05.224Z,12.30
2018-09-30T22:13:33.473Z,12.20
2018-09-30T22:16:01.728Z,12.10
2018-09-30T22:18:30.498Z,12.10
2018-09-30T22:20:58.663Z,12.10
2018-09-30T22:23:26.849Z,12.10
2018-09-30T22:25:55.118Z,12.10
2018-09-30T22:28:24.204Z,12.10
2018-09-30T22:30:52.347Z,12.10
2018-09-30T22:33:20.644Z,12.10
2018-09-30T22:35:48.983Z,12.00
2018-09-30T22:38:17.216Z,12.00
2018-09-30T22:40:45.350Z,11.90
2018-09-30T22:43:13.554Z,11.90
2018-09-30T22:45:41.777Z,12.00
2018-09-30T22:48:10.069Z,12.00
2018-09-30T22:50:38.301Z,12.00
2018-09-30T22:53:06.498Z,11.90
2018-09-30T22:55:34.675Z,11.90
2018-09-30T22:58:02.939Z,11.90
2018-09-30T23:00:31.335Z,11.90
2018-09-30T23:02:59.499Z,11.90
2018-09-30T23:05:27.704Z,11.80
2018-09-30T23:07:55.854Z,11.80
2018-09-30T23:10:24.081Z,11.80
2018-09-30T23:12:52.300Z,11.90
2018-09-30T23:15:20.655Z,11.90
2018-09-30T23:17:48.953Z,11.90
2018-09-30T23:20:18.035Z,11.90
2018-09-30T23:22:46.742Z,11.90
2018-09-30T23:25:14.976Z,12.00
2018-09-30T23:27:43.361Z,11.90
2018-09-30T23:30:12.582Z,11.90
2018-09-30T23:32:42.713Z,11.90
2018-09-30T23:35:10.884Z,11.90
2018-09-30T23:37:39.123Z,11.80
2018-09-30T23:40:07.388Z,11.90
2018-09-30T23:42:35.873Z,11.90
2018-09-30T23:45:04.807Z,11.90
2018-09-30T23:47:32.994Z,12.00
2018-09-30T23:50:01.208Z,12.10
2018-09-30T23:52:29.336Z,12.10
2018-09-30T23:54:57.521Z,12.10
2018-09-30T23:57:25.691Z,12.10
2018-09-30T23:59:54.444Z,12.10
